Open Full Screen Window  High Contrast Mode
Wind Gusting 16 knots
09
May 24, 2016 3:29 PM EDT
Weather Information
Wind Direction
  210 °
Wind Speed
  09 kt (10 mph)
Wind Gust
  16 kt (18 mph)
Altimeter
29.94 in
Visibility
10 SM
Temperature
30° C
86° F
Dewpoint
10° C
50° F
Humidity
29%
1hr Rain Fall
00.00 in.
24hr Rain Fall
00.00 in.
Sky Condition
Clear
VFR

METAR KIKW 241929Z AUTO 21009G16KT 10SM CLR 30/10 A2994 RMK AO2 T02970096

*Background is not an actual portrayal of the airport.